Scroll down
FLIGHT INFORMATION
Alaska Airlines

ASA721

At Arrival Gate

PANC
 KSAN
DATE: 2020-07-21
GATE: C7
GATE DEPARTURE: 16:41
TAKEOFF: 16:53
DATE: 2020-07-21
GATE: 11
LANDING: 21:41
GATE ARRIVAL: 21:45
FLIGHT DATA
Crew: 
Speed: 
463 kts
Altitude: 
35,035 ft
Stage Length: 
2,128.4 nm
Block Time: 
5.1 hrs
Flight Time: 
4.8 hrs
Fuel Used: 
31,083 lb
Cleared Route: PANC MDO KATCH METPA NAKBI PETPA KURTT SIMLU TAMRU VIDKU KANUA KYLLE BOXER FOT SAC MOD EHF HUULK KSAN
TRACK DATA
50,000 ft 1,000 kts
AIRCRAFT INFO AND CUMULATIVE STATS
Aircraft Type: 
B739ERSSW
Registration: 
SELCAL: 
KMEQ
MSN/LN: 
61555 / 6459
Operator: 
Total Flights: 
6
Total Block Time: 
23.8 hrs
Total Flight Time: 
22.3 hrs
Total Fuel Time: 
135,438 lb
DATALINK LOG | Newest first | Current as of: 2021-01-22 00:19:44
LABEL SEQUENCE CONTENT Dn/Up
QD432221:45 6.2▼ Dn
QC391921:41▼ Dn
GA4835GATE 11▲ Up
GR4835KSAN 21:40 HI-VAL NO▼ Dn
2U4459KSAN 211951Z 29009KT 10SM SCT020 23/16 A2989 RMK AO2 SLP123 T02280161▲ Up
2S4633KSAN▼ Dn
QB533216:53▼ Dn
QA422116:41 37.3▼ Dn
2U3008PANC 211553Z 16005KT 10SM FEW040 BKN060 BKN080 15/13 A2990 RMK AO2 RAB00E09 SLP126 P0000 T01500128▲ Up
2S3009PANC▼ Dn
A30556CLEARED TO KSAN VIA MDO B453 KURTT B453 KYLLE B453 BOXER FOT SAC MOD EHF HUULK COMIX2. SQUAWK .▲ Up
B30546PANC KSAN ASA721 N274AK ▼ Dn
Q00344[LINK ACK]▲ Up
Q00344[LINK TEST]▼ Dn


AIRCRAFT HISTORY
FLIGHT DATE FLIGHT NO. ORIGIN DESTINATION CLEARED ROUTE BLOCK TIME FLIGHT TIME FUEL USED PILOT
2020-12-30ASA1465KSEA PAFA KSEA CAVOB RENBE RICHR TOMRE BANGR ARRIE YJQ DOOZI SSR AYZOL ORT RDFLG HRDNG RNDRR KRIIS BAYKR CILAX RW02L3.5 hrs3.3 hrs19,897 lbDan Downs
2020-11-21ASA186PAJN KSEA PAJN LEMNN SALMN TRDWL MARMN GLAZZ SNETT YYJ ORCUS MARNR BOANE NEHOS GRIFY KSEA2.2 hrs1.9 hrs11,002 lbRyan Syferd
2020-10-17ASA876KIAH PAJN KIAH BBYSE SPICR WLLIS STYCK DOLEY FUZ LAA FQF BOY HLN DORSE YWL CASSL NAAPP YYD LVD HOODS SSR RW087.2 hrs6.9 hrs39,308 lbPete L.
2020-10-16ASA3980KGPI KIAH KGPI FCA SKOTT HLN MBW LAA MMB MQP TORNN REFYN OILLL DPLAN SSTAX MPORT GUSHR JELLI RW08R3.4 hrs3 hrs18,672 lbPete L.
2020-10-09ASA3910KSAN KGPI KSAN WNFLD KERNL GYWNN PADRZ HFMNN CHKNN RIDDL LANDO EHF FRA LLC REO MLP FIKAB RW202.8 hrs2.4 hrs15,475 lbPete L.
2020-07-21ASA721PANC KSAN PANC MDO KATCH METPA NAKBI PETPA KURTT SIMLU TAMRU VIDKU KANUA KYLLE BOXER FOT SAC MOD EHF HUULK KSAN5.1 hrs4.8 hrs31,083 lbMarc Ehnle